Slide Mountain Weather observations

Data are for 10 minute period ending at time listed.
 Day   Time   Solar   Ave.   Ave.  Ave.  Vector  Max.    Baro.  
  of    of     Rad.   Air    Rel.  Wind   Wind   Wind   Press.  
Year   Day            Temp.  Hum.  Speed  Dir.   Gust           
2016   (PST)  Kw/m2    F      %     mph   deg.    mph     mb.   
-----------------------------------------------------------------
 147    6:30   0.27   34.1    68   14.0    28     20.7    600.8 
 147    6:40   0.30   34.0    66   15.9    27     21.0    600.8 
 147    6:50   0.33   34.2    64   13.8    25     19.4    600.8 
 147    7:00   0.36   34.8    62    9.7    29     17.5    600.8 
 147    7:10   0.39   35.1    63   11.7    39     19.5    600.8 
 147    7:20   0.32   34.4    63   12.6    28     17.0    600.8 
 147    7:30   0.44   35.3    64    9.8    44     13.8    600.8 
 147    7:40   0.54   35.4    68   10.2    40     21.9    600.8 
 147    7:50   0.38   35.1    69   12.6    38     24.1    600.8 
 147    8:00   0.38   35.1    67    5.6    24     14.1    600.9 
 147    8:10   0.49   37.0    79    4.0    91     12.0    601.1 
 147    8:20   0.59   36.1    71   12.3    47     21.4    601.3 
 147    8:30   0.28   35.8    71    6.5    54     18.5    601.1 
 147    8:40   0.22   35.3    83    5.9    58     17.4    601.0 
 147    8:50   0.16   34.9    74    5.5    43     15.1    600.9 
 147    9:00   0.14   34.4    86    6.0    75     14.0    600.9 
 147    9:10   0.16   34.9    81    2.1    42      9.1    600.9 
 147    9:20   0.13   34.6    88    4.3    81      9.3    600.9 
 147    9:30   0.11   34.3    90    1.4    86      4.4    600.8 
 147    9:40   0.17   35.4    81    0.0    54      0.4    600.8 
 147    9:50   0.20   35.9    74    1.5    64     11.3    600.8 
 147   10:00   0.24   35.5    77    2.5    62      6.6    600.9 
 147   10:10   0.30   37.3    74    0.2   156      1.1    600.9 
 147   10:20   0.32   37.1    73    3.5   122      7.6    600.9 
 147   10:30   0.22   35.9    75    4.9   129     13.3    600.9 
 147   10:40   0.19   35.9    76    0.8   176      3.3    600.9 
 147   10:50   0.19   36.8    74    0.3    92      3.0    600.9 
 147   11:00   0.24   37.1    73    1.1   128      7.2    600.9 
 147   11:10   0.26   38.0    72    0.3   241      1.9    600.9 
 147   11:20   0.59   38.7    69    0.8   260      3.4    601.8 
 147   11:30   0.57   40.2    65    0.4   266      3.4    602.0 
 147   11:40   0.38   40.2    65    0.6   278      5.0    601.2 
 147   11:50   0.34   39.9    72    0.4   259      1.8    601.2 
 147   12:00   0.27   38.9    74    3.5   257      9.1    601.1 
 147   12:10   0.36   39.3    73    4.8   243      9.5    601.6 
 147   12:20   0.33   39.6    71    4.1   252     10.2    601.2 
 147   12:30   0.26   39.8    69    0.9   258      5.6    601.2 
 147   12:40   0.34   40.1    67    0.3   253      2.1    601.3 
 147   12:50   0.26   40.0    66    0.1   330      1.4    601.1 
 147   13:00   0.33   39.4    66    2.5   274      9.0    601.2 
 147   13:10   0.83   42.1    61    2.7   242      9.4    604.6 
 147   13:20   0.62   44.3    58    3.4   266     10.0    602.8 
 147   13:30   0.53   42.9    57    1.1   306      5.4    602.7 
 147   13:40   0.87   44.0    54    0.6    19      5.8    605.9 
 147   13:50   0.91   44.6    53    2.9   305      5.4    606.7 
 147   14:00   0.76   46.1    49    3.7   315     13.2    605.2 
 147   14:10   0.75   44.8    51    3.4   278      8.0    605.3 
 147   14:20   0.81   46.5    45    3.3   299      7.6    605.6 
 147   14:30   0.78   45.8    46    2.8   328      7.0    605.4 
 147   14:40   0.61   44.4    49    4.8   339     10.5    603.7 
 147   14:50   0.78   45.3    48    3.2   314      8.1    604.0 
 147   15:00   0.79   46.0    46    1.6   308      7.0    603.9 
 147   15:10   0.74   45.6    48    5.1   351     11.7    603.6 
 147   15:20   0.70   45.0    48    6.6   317     12.2    604.2 
 147   15:30   0.66   45.3    45    6.5   299     13.3    604.0 
 147   15:40   0.51   45.6    47    3.5   318     10.2    604.3 
 147   15:50   0.57   45.4    47    6.0   299     12.1    604.0 
 147   16:00   0.41   44.2    49    4.7   320     10.5    603.1 
 147   16:10   0.52   45.0    47    8.6   292     18.8    602.7 
 147   16:20   0.46   45.2    47    9.0   291     15.7    602.8 
 147   16:30   0.36   45.2    49    5.5   298     12.5    602.9 
 147   16:40   0.28   45.0    53    8.3   261     13.2    602.3 
 147   16:50   0.32   43.3    58   11.2   262     15.9    601.8 
 147   17:00   0.17   42.2    61   12.1   256     15.5    601.7 
 147   17:10   0.22   41.6    64   13.2   260     16.9    601.5 
 147   17:20   0.22   40.8    66   12.6   266     15.7    601.3 
 147   17:30   0.05   39.2    72   13.6   264     16.8    601.2 
 147   17:40   0.04   38.5    77   12.8   270     15.9    601.1 
 147   17:50   0.04   38.1    81   13.5   269     17.4    601.1 
 147   18:00   0.04   37.9    82   12.8   266     16.4    601.0 
 147   18:10   0.08   38.4    82   12.0   268     14.8    601.0 
 147   18:20   0.06   38.3    82   14.1   263     18.5    601.0 
 147   18:30   0.05   38.2    84   14.8   264     19.3    601.0 
 147   18:40   0.03   38.1    84   13.1   270     17.5    601.0 
 147   18:50   0.01   37.9    84   13.6   278     18.3    600.9 
 147   19:00   0.01   37.8    84   11.6   283     15.9    600.9 
 147   19:10   0.01   37.8    83   11.4   284     14.4    600.8 
 147   19:20   0.00   37.6    84   11.2   285     15.2    600.8 
 147   19:30   0.00   37.2    85   10.2   286     13.3    600.8 
 147   19:40   0.00   37.1    85   11.0   278     15.7    600.8 
 147   19:50   0.00   36.9    86   10.8   285     15.1    600.8 
 147   20:00   0.00   36.6    90   14.9   288     18.0    600.8 
 147   20:10   0.00   36.3    94   13.0   275     19.3    600.8 
 147   20:20   0.00   36.5    91   12.7   290     18.4    600.8 
 147   20:30   0.00   36.5    91   12.8   289     17.1    600.8 
 147   20:40   0.00   36.4    91   11.1   304     16.5    600.8 
 147   20:50   0.00   36.4    89   10.1   312     14.2    600.8 
 147   21:00   0.00   36.6    86   10.4   319     14.5    600.8 
 147   21:10   0.00   36.5    86    8.8   324     13.5    600.8 
 147   21:20   0.00   37.0    82    6.5   320     11.8    600.8 
 147   21:30   0.00   37.6    77    5.6   317      8.1    600.8 
 147   21:40   0.00   37.5    78    7.5   314     10.5    600.8 
 147   21:50   0.00   37.5    79    7.5   319      9.6    600.8 
 147   22:00   0.00   37.7    78    7.0   322     10.7    600.8 
 147   22:10   0.00   37.6    77    7.4   319     12.4    600.8 
 147   22:20   0.00   37.0    79    9.4   322     14.1    600.8 
 147   22:30   0.00   36.6    80    8.1   329     11.8    600.8 
 147   22:40   0.00   36.6    81    7.0   333      9.3    600.8 
 147   22:50   0.00   36.4    82    7.1   333     10.9    600.8 
 147   23:00   0.00   36.3    83    6.4   334      8.5    600.8 
 147   23:10   0.00   36.3    84    7.3   330     10.8    600.8 
 147   23:20   0.00   36.2    84    6.8   340      9.1    600.8 
 147   23:30   0.00   36.6    80    9.0   352     13.5    600.8 
 147   23:40   0.00   36.9    74   10.2   352     16.3    600.8 
 147   23:50   0.00   36.8    69   11.8   349     18.0    600.8 
 148    0:00   0.00   36.1    78    7.9   342     12.1    600.8 
 148    0:10   0.00   36.6    68   13.0   351     18.7    600.8 
 148    0:20   0.00   36.3    68   10.3   348     14.4    600.8 
 148    0:30   0.00   36.2    69   11.7   346     15.0    600.8 
 148    0:40   0.00   36.2    69   14.7   351     22.5    600.8 
 148    0:50   0.00   36.5    67   18.2   353     22.6    600.8 
 148    1:00   0.00   35.9    70   11.5   341     20.6    600.8 
 148    1:10   0.00   35.2    74    9.8   338     13.1    600.8 
 148    1:20   0.00   35.1    75   10.1   326     13.6    600.8 
 148    1:30   0.00   35.0    76    7.6   334     11.2    600.8 
 148    1:40   0.00   34.8    75    8.8   327     13.3    600.8 
 148    1:50   0.00   34.9    75    9.5   317     14.2    600.8 
 148    2:00   0.00   34.7    76    6.8   313     10.4    600.8 
 148    2:10   0.00   34.9    72    6.0   314      7.6    600.8 
 148    2:20   0.00   35.1    69    5.7   306      7.6    600.8 
 148    2:30   0.00   35.2    68    5.5   310      7.8    600.8 
 148    2:40   0.00   35.3    66    5.7   316      8.4    600.8 
 148    2:50   0.00   35.1    65    6.1   304      7.9    600.8 
 148    3:00   0.00   35.3    64    6.5   313      8.3    600.8 
 148    3:10   0.00   35.4    64    4.5   309      7.2    600.8 
 148    3:20   0.00   35.5    62    3.6   296      5.4    600.8 
 148    3:30   0.00   35.9    63    0.8   275      3.6    600.8 
 148    3:40   0.00   35.8    64    4.5   262      6.9    600.8 
 148    3:50   0.00   35.8    64    1.0   261      3.6    600.8 
 148    4:00   0.00   35.9    63    0.2   265      1.4    600.8 
 148    4:10   0.00   35.6    64    1.1   270      2.5    600.8 
 148    4:20   0.00   35.6    65    0.1   266      0.7    600.8 
 148    4:30   0.00   35.8    65    0.0   265      0.1    600.8 
 148    4:40   0.01   35.9    63    0.0     0      0.0    600.8 
 148    4:50   0.01   36.3    61    0.0     0      0.0    600.8 
 148    5:00   0.03   37.2    60    0.0     0      0.0    600.8 
 148    5:10   0.05   37.4    59    0.5   235      3.9    600.8 
 148    5:20   0.07   37.3    59    0.8   233      3.2    600.8 
 148    5:30   0.10   37.8    58    1.0   222      4.1    600.8 
 148    5:40   0.13   37.3    60    1.3   232      3.9    600.7 
 148    5:50   0.16   38.3    63    0.0     0      0.0    600.7 
 148    6:00   0.18   39.4    63    0.4   164      1.3    600.7 
 148    6:10   0.21   40.1    63    0.1   154      0.8    600.7 
 148    6:20   0.24   41.9    61    0.0     0      0.0    600.7 

Return to Slide Mountain graphs page.


Western Regional Climate Center,wrcc@dri.edu